Time;durP1;ratioP1;P1;durP2;ratioP2;P2;SDS_P1;SDS_P2;PMS_P1;PMS_P2;Temp;Humidity;BMP_temperature;BMP_pressure;BME280_temperature;BME280_humidity;BME280_pressure;Samples;Min_cycle;Max_cycle;Signal;HPM_P1;HPM_P2
2021/03/01 00:00:09;35016.00;0.12;61.26;0.00;0.00;0.62;;;;;12.00;1.00;;;;;;2280378;60;1305;-88
2021/03/01 00:02:36;106019.00;0.35;183.96;0.00;0.00;0.62;;;;;11.80;1.00;;;;;;2280385;60;1102;-90
2021/03/01 00:05:05;248835.00;0.83;429.95;21642.00;0.07;38.11;;;;;11.70;1.00;;;;;;2280429;60;1744;-89
2021/03/01 00:07:32;143463.00;0.48;248.54;0.00;0.00;0.62;;;;;11.70;1.00;;;;;;2280317;60;2023;-89
2021/03/01 00:09:59;190921.00;0.64;330.29;0.00;0.00;0.62;;;;;11.80;1.00;;;;;;2280246;60;1734;-88
2021/03/01 00:12:25;185786.00;0.62;321.45;0.00;0.00;0.62;;;;;12.00;1.00;;;;;;2280315;60;1601;-88
2021/03/01 00:14:52;274499.00;0.91;474.08;0.00;0.00;0.62;;;;;12.10;1.00;;;;;;2280435;60;1111;-89
2021/03/01 00:17:18;378783.00;1.26;653.33;32493.00;0.11;56.90;;;;;12.00;1.00;;;;;;2280280;60;1711;-89
2021/03/01 00:19:45;25066.00;0.08;44.04;0.00;0.00;0.62;;;;;12.00;1.00;;;;;;2280331;60;1310;-89
2021/03/01 00:22:12;154718.00;0.52;267.94;0.00;0.00;0.62;;;;;12.10;1.00;;;;;;2280333;60;1598;-89
2021/03/01 00:24:39;119102.00;0.40;206.53;0.00;0.00;0.62;;;;;12.20;1.00;;;;;;2280257;60;1118;-89
2021/03/01 00:27:06;65018.00;0.22;113.15;0.00;0.00;0.62;;;;;11.70;1.00;;;;;;2280211;60;1917;-89
2021/03/01 00:29:32;125730.00;0.42;217.97;0.00;0.00;0.62;;;;;11.10;1.00;;;;;;2271997;61;1266;-88
2021/03/01 00:32:00;22029.00;0.07;38.78;0.00;0.00;0.62;;;;;10.70;1.00;;;;;;2272535;61;951;-88
2021/03/01 00:34:27;213232.00;0.71;368.70;0.00;0.00;0.62;;;;;10.90;1.00;;;;;;2272366;61;1743;-88
2021/03/01 00:36:53;60470.00;0.20;105.29;0.00;0.00;0.62;;;;;10.70;1.00;;;;;;2272414;61;1122;-88
2021/03/01 00:39:21;102110.00;0.34;177.21;0.00;0.00;0.62;;;;;11.00;1.00;;;;;;2272434;61;1631;-87
2021/03/01 00:41:48;328109.00;1.09;566.24;33027.00;0.11;57.82;;;;;11.50;1.00;;;;;;2272382;61;1057;-90
2021/03/01 00:44:14;91374.00;0.30;158.68;0.00;0.00;0.62;;;;;11.80;1.00;;;;;;2272468;61;1086;-90
2021/03/01 00:46:41;220806.00;0.74;381.73;0.00;0.00;0.62;;;;;11.80;1.00;;;;;;2273354;60;1917;-88
2021/03/01 00:49:07;128833.00;0.43;223.32;0.00;0.00;0.62;;;;;11.70;1.00;;;;;;2281022;60;950;-89
2021/03/01 00:51:34;224457.00;0.75;388.01;0.00;0.00;0.62;;;;;11.50;1.00;;;;;;2280960;60;1462;-90
2021/03/01 00:54:00;172001.00;0.57;297.71;0.00;0.00;0.62;;;;;11.60;1.00;;;;;;2280823;60;1540;-89
2021/03/01 00:56:28;164767.00;0.55;285.25;0.00;0.00;0.62;;;;;11.10;1.00;;;;;;2280985;60;1090;-90
2021/03/01 00:58:54;58406.00;0.19;101.72;0.00;0.00;0.62;;;;;11.10;1.00;;;;;;2280840;60;937;-90
2021/03/01 01:01:21;6049.00;0.02;11.10;0.00;0.00;0.62;;;;;11.40;1.00;;;;;;2280977;60;1517;-88
2021/03/01 01:03:47;70160.00;0.23;122.04;0.00;0.00;0.62;;;;;11.20;1.00;;;;;;2280914;60;1075;-88
2021/03/01 01:06:14;266421.00;0.89;460.19;0.00;0.00;0.62;;;;;10.50;1.00;;;;;;2280680;60;1931;-89
2021/03/01 01:08:40;116585520.00;388.62;64188084.00;5901.00;0.02;10.85;;;;;9.70;1.00;;;;;;2280947;60;1742;-88
2021/03/01 01:11:07;229443.00;0.76;396.59;0.00;0.00;0.62;;;;;9.60;1.00;;;;;;2280841;60;1416;-86
2021/03/01 01:13:34;143610.00;0.48;248.79;0.00;0.00;0.62;;;;;9.90;1.00;;;;;;2280931;60;1008;-88
2021/03/01 01:16:01;53582.00;0.18;93.38;0.00;0.00;0.62;;;;;10.30;1.00;;;;;;2276066;61;963;-87
2021/03/01 01:18:29;59729.00;0.20;104.01;0.00;0.00;0.62;;;;;9.40;1.00;;;;;;2269698;61;1044;-87
2021/03/01 01:20:55;121324.00;0.40;210.37;0.00;0.00;0.62;;;;;9.60;1.00;;;;;;2276270;61;1695;-88
2021/03/01 01:23:22;149030.00;0.50;258.14;0.00;0.00;0.62;;;;;9.70;1.00;;;;;;2276226;61;1793;-87
2021/03/01 01:25:48;129443.00;0.43;224.37;0.00;0.00;0.62;;;;;9.30;1.00;;;;;;2276350;61;1738;-88
2021/03/01 01:28:15;29339.00;0.10;51.44;0.00;0.00;0.62;;;;;9.60;1.00;;;;;;2276344;61;1099;-87
2021/03/01 01:30:42;6493.00;0.02;11.87;0.00;0.00;0.62;;;;;10.00;1.00;;;;;;2276380;61;1430;-88
2021/03/01 01:33:09;15973.00;0.05;28.30;0.00;0.00;0.62;;;;;10.30;1.00;;;;;;2276598;60;1020;-87
2021/03/01 01:35:39;139474.00;0.46;241.66;0.00;0.00;0.62;;;;;10.70;1.00;;;;;;2280798;60;1603;-87
2021/03/01 01:38:05;190092.00;0.63;328.87;0.00;0.00;0.62;;;;;10.90;1.00;;;;;;2280827;60;1773;-87
2021/03/01 01:40:34;110008.00;0.37;190.84;0.00;0.00;0.62;;;;;11.00;1.00;;;;;;2280427;60;1754;-88
2021/03/01 01:43:01;375135.00;1.25;647.06;97404.00;0.32;169.09;;;;;11.10;1.00;;;;;;2280844;60;1041;-87
2021/03/01 01:45:28;73776.00;0.25;128.28;0.00;0.00;0.62;;;;;11.30;1.00;;;;;;2272219;61;999;-89
2021/03/01 01:47:55;145559.00;0.49;252.15;0.00;0.00;0.62;;;;;11.50;1.00;;;;;;2272148;61;1926;-88
2021/03/01 01:50:24;371540.00;1.24;640.88;0.00;0.00;0.62;;;;;11.60;1.00;;;;;;2272282;61;1321;-90
2021/03/01 01:52:52;27567.00;0.09;48.37;0.00;0.00;0.62;;;;;11.50;1.00;;;;;;2272257;61;1032;-89
2021/03/01 01:55:20;77386.00;0.26;134.52;0.00;0.00;0.62;;;;;11.50;1.00;;;;;;2272308;61;984;-89
2021/03/01 01:57:50;74884.00;0.25;130.20;0.00;0.00;0.62;;;;;11.60;1.00;;;;;;2272260;61;989;-89
2021/03/01 02:00:28;399054.00;1.33;688.18;24693.00;0.08;43.40;;;;;11.60;1.00;;;;;;2272227;61;1362;-87
2021/03/01 02:03:00;66509.00;0.22;115.73;0.00;0.00;0.62;;;;;11.60;1.00;;;;;;2274375;60;1611;-88
2021/03/01 02:05:28;41134.00;0.14;71.85;0.00;0.00;0.62;;;;;11.10;1.00;;;;;;2280759;60;1095;-88
2021/03/01 02:08:06;12507.00;0.04;22.29;0.00;0.00;0.62;;;;;11.10;1.00;;;;;;2280769;60;1931;-88
2021/03/01 02:10:43;0.00;0.00;0.62;0.00;0.00;0.62;;;;;11.30;1.00;;;;;;2280716;60;1381;-89
2021/03/01 02:13:20;86346.00;0.29;150.00;0.00;0.00;0.62;;;;;11.50;1.00;;;;;;2272110;61;958;-89
2021/03/01 02:15:54;153492.00;0.51;265.83;0.00;0.00;0.62;;;;;11.60;1.00;;;;;;2272167;61;1681;-91
2021/03/01 02:18:21;123782.00;0.41;214.61;0.00;0.00;0.62;;;;;11.50;1.00;;;;;;2272225;61;982;-88
2021/03/01 02:20:49;7414.00;0.02;13.47;0.00;0.00;0.62;;;;;11.40;1.00;;;;;;2272033;61;1413;-88
2021/03/01 02:23:17;154675.00;0.52;267.86;0.00;0.00;0.62;;;;;11.50;1.00;;;;;;2272101;61;1661;-89
2021/03/01 02:25:48;57871.00;0.19;100.80;0.00;0.00;0.62;;;;;11.60;1.00;;;;;;2272192;61;1017;-89
2021/03/01 02:28:17;139188.00;0.46;241.17;0.00;0.00;0.62;;;;;11.60;1.00;;;;;;2272095;61;1938;-88
2021/03/01 02:30:49;267952.00;0.89;462.82;0.00;0.00;0.62;;;;;11.50;1.00;;;;;;2274588;60;1670;-88
2021/03/01 02:33:21;101981.00;0.34;176.99;34635.00;0.12;60.61;;;;;11.60;1.00;;;;;;2280706;60;909;-88
2021/03/01 02:35:52;48294.00;0.16;84.24;0.00;0.00;0.62;;;;;11.60;1.00;;;;;;2280693;60;909;-87
2021/03/01 02:38:23;194494.00;0.65;336.45;24871.00;0.08;43.70;;;;;11.80;1.00;;;;;;2280601;60;1761;-88
2021/03/01 02:40:51;18634.00;0.06;32.90;0.00;0.00;0.62;;;;;11.90;1.00;;;;;;2272058;61;1468;-90
2021/03/01 02:43:20;118469.00;0.39;205.44;0.00;0.00;0.62;;;;;11.60;1.00;;;;;;2272029;61;959;-88
2021/03/01 02:45:47;40580.00;0.14;70.89;0.00;0.00;0.62;;;;;11.40;1.00;;;;;;2272090;61;1015;-88
2021/03/01 02:48:15;119422.00;0.40;207.09;0.00;0.00;0.62;;;;;10.80;1.00;;;;;;2272125;61;1933;-89
2021/03/01 02:50:44;254278.00;0.85;439.31;0.00;0.00;0.62;;;;;10.80;1.00;;;;;;2272106;61;1294;-89
2021/03/01 02:53:11;131889.00;0.44;228.59;0.00;0.00;0.62;;;;;11.00;1.00;;;;;;2272017;61;1537;-89
2021/03/01 02:55:43;135252.00;0.45;234.39;0.00;0.00;0.62;;;;;11.30;1.00;;;;;;2272048;61;1684;-87
2021/03/01 02:58:10;187717.00;0.63;324.78;0.00;0.00;0.62;;;;;11.40;1.00;;;;;;2273766;60;1601;-88
2021/03/01 03:00:37;179139.00;0.60;310.01;0.00;0.00;0.62;;;;;11.50;1.00;;;;;;2280535;60;1703;-89
2021/03/01 03:03:07;209189.00;0.70;361.74;0.00;0.00;0.62;;;;;11.20;1.00;;;;;;2280484;60;1114;-88
2021/03/01 03:05:35;53276.00;0.18;92.85;0.00;0.00;0.62;;;;;10.90;1.00;;;;;;2280599;60;1028;-88
2021/03/01 03:08:02;74506.00;0.25;129.55;0.00;0.00;0.62;;;;;11.00;1.00;;;;;;2280616;60;1923;-88
2021/03/01 03:10:31;151724.00;0.51;262.78;0.00;0.00;0.62;;;;;11.10;1.00;;;;;;2280485;60;1667;-88
2021/03/01 03:13:00;125509.00;0.42;217.58;0.00;0.00;0.62;;;;;11.10;1.00;;;;;;2275979;61;1552;-88
2021/03/01 03:15:29;36539.00;0.12;63.90;0.00;0.00;0.62;;;;;10.80;1.00;;;;;;2276049;61;1130;-87
2021/03/01 03:17:57;8659.00;0.03;15.63;0.00;0.00;0.62;;;;;10.80;1.00;;;;;;2269308;61;1001;-87
2021/03/01 03:20:25;46969.00;0.16;81.94;0.00;0.00;0.62;;;;;10.30;1.00;;;;;;2263758;61;1385;-87
2021/03/01 03:22:52;27649.00;0.09;48.51;0.00;0.00;0.62;;;;;9.90;1.00;;;;;;2260531;61;997;-86
2021/03/01 03:25:18;31362.00;0.10;54.94;0.00;0.00;0.62;;;;;10.20;1.00;;;;;;2251793;61;1017;-87
2021/03/01 03:27:45;61854.00;0.21;107.68;0.00;0.00;0.62;;;;;10.40;1.00;;;;;;2247804;61;1989;-87
2021/03/01 03:30:16;32401.00;0.11;56.74;0.00;0.00;0.62;;;;;10.60;1.00;;;;;;2240560;62;1397;-88
2021/03/01 03:32:43;21448.00;0.07;37.78;0.00;0.00;0.62;;;;;11.00;1.00;;;;;;2243947;61;963;-88
2021/03/01 03:35:12;119814.00;0.40;207.76;0.00;0.00;0.62;;;;;11.00;1.00;;;;;;2243873;61;1689;-88
2021/03/01 03:37:44;90622.00;0.30;157.38;0.00;0.00;0.62;;;;;10.90;1.00;;;;;;2245194;61;1742;-88
2021/03/01 03:55:49;193423.00;0.64;334.60;0.00;0.00;0.62;;;;;11.10;1.00;;;;;;2278434;61;1192;-89
2021/03/01 03:58:24;186605.00;0.62;322.86;0.00;0.00;0.62;;;;;10.40;1.00;;;;;;2276161;61;1047;-88
2021/03/01 04:00:53;108476.00;0.36;188.20;0.00;0.00;0.62;;;;;9.60;1.00;;;;;;2276149;61;1463;-89
2021/03/01 04:03:22;257363.00;0.86;444.61;78068.00;0.26;135.70;;;;;9.10;1.00;;;;;;2276183;61;940;-89
2021/03/01 04:05:51;234827.00;0.78;405.85;68482.00;0.23;119.14;;;;;9.30;1.00;;;;;;2276371;61;1028;-88
2021/03/01 04:08:20;229566.00;0.77;396.80;92583.00;0.31;160.77;;;;;9.00;1.00;;;;;;2276373;61;2002;-88
2021/03/01 04:10:50;260928.00;0.87;450.74;76526.00;0.26;133.04;;;;;9.40;1.00;;;;;;2276215;61;1284;-88
2021/03/01 04:13:18;301485.00;1.00;520.47;45006.00;0.15;78.55;;;;;9.10;1.00;;;;;;2276390;61;930;-88
2021/03/01 04:15:48;319586.00;1.07;551.59;86269.00;0.29;149.86;;;;;9.50;1.00;;;;;;2276294;61;1609;-89
2021/03/01 04:18:21;380111.00;1.27;655.62;80950.00;0.27;140.68;;;;;9.80;1.00;;;;;;2276347;61;1581;-87
2021/03/01 04:20:49;319965.00;1.07;552.24;74212.00;0.25;129.04;;;;;10.20;1.00;;;;;;2276275;61;1483;-87
2021/03/01 04:23:17;230081.00;0.77;397.69;75616.00;0.25;131.46;;;;;10.50;1.00;;;;;;2271776;61;1052;-87
2021/03/01 04:25:45;177697.00;0.59;307.52;78130.00;0.26;135.81;;;;;10.00;1.00;;;;;;2263657;61;1042;-88
2021/03/01 04:28:14;248431.00;0.83;429.25;80140.00;0.27;139.28;;;;;10.10;1.00;;;;;;2263662;61;1931;-88
2021/03/01 04:30:41;192108.00;0.64;332.34;86806.00;0.29;150.79;;;;;10.30;1.00;;;;;;2263693;61;1423;-88
2021/03/01 04:33:09;370181.00;1.23;638.55;83546.00;0.28;145.16;;;;;10.10;1.00;;;;;;2255653;61;1061;-88
2021/03/01 04:35:38;169173.00;0.56;292.84;73535.00;0.25;127.87;;;;;9.90;1.00;;;;;;2255765;61;1021;-87
2021/03/01 04:38:04;204580.00;0.68;353.81;87298.00;0.29;151.64;;;;;9.80;1.00;;;;;;2255711;61;984;-87
2021/03/01 04:40:31;303331.00;1.01;523.65;85717.00;0.29;148.91;;;;;9.80;1.00;;;;;;2256326;61;1420;-87
2021/03/01 04:42:58;289910.00;0.97;500.57;83584.00;0.28;145.23;;;;;9.50;1.00;;;;;;2261004;61;1087;-88
2021/03/01 04:45:29;258988.00;0.86;447.41;81940.00;0.27;142.39;;;;;9.70;1.00;;;;;;2267753;61;1028;-87
2021/03/01 04:47:56;215270.00;0.72;372.20;86355.00;0.29;150.01;;;;;9.70;1.00;;;;;;2267693;61;1980;-87
2021/03/01 04:50:25;249201.00;0.83;430.58;82431.00;0.27;143.24;;;;;10.00;1.00;;;;;;2259117;61;1444;-86
2021/03/01 04:52:52;239437.00;0.80;413.78;77985.00;0.26;135.56;;;;;10.10;1.00;;;;;;2267597;61;1104;-88
2021/03/01 04:55:20;197689.00;0.66;341.95;75094.00;0.25;130.56;;;;;10.10;1.00;;;;;;2259483;61;1066;-88
2021/03/01 04:57:47;212656.00;0.71;367.71;86532.00;0.29;150.32;;;;;9.40;1.00;;;;;;2252984;61;1057;-89
2021/03/01 05:00:15;178925.00;0.60;309.64;75757.00;0.25;131.71;;;;;9.80;1.00;;;;;;2251479;61;1414;-87
2021/03/01 05:02:43;251763.00;0.84;434.98;83186.00;0.28;144.54;;;;;9.40;1.00;;;;;;2251544;61;1654;-88
2021/03/01 05:05:11;303426.00;1.01;523.81;73573.00;0.25;127.93;;;;;8.90;1.00;;;;;;2251643;61;1156;-89
2021/03/01 05:07:38;188502.00;0.63;326.13;88328.00;0.29;153.42;;;;;8.80;1.00;;;;;;2251558;61;1928;-87
2021/03/01 05:10:07;349395.00;1.16;602.82;83071.00;0.28;144.34;;;;;9.20;1.00;;;;;;2252837;61;1334;-88
2021/03/01 05:12:34;268614.00;0.90;463.96;79524.00;0.27;138.22;;;;;9.20;1.00;;;;;;2260239;61;1010;-87
2021/03/01 05:15:00;182263.00;0.61;315.39;80111.00;0.27;139.23;;;;;9.70;1.00;;;;;;2260440;61;1050;-89
2021/03/01 05:17:27;169641.00;0.57;293.65;82908.00;0.28;144.06;;;;;10.10;1.00;;;;;;2262165;61;1043;-87
2021/03/01 05:19:54;208793.00;0.70;361.06;78704.00;0.26;136.80;;;;;10.00;1.00;;;;;;2272420;61;1507;-88
2021/03/01 05:22:21;187679.00;0.63;324.71;80918.00;0.27;140.62;;;;;9.80;1.00;;;;;;2265676;61;1051;-86
2021/03/01 05:24:47;175399.00;0.58;303.57;76410.00;0.25;132.84;;;;;9.40;1.00;;;;;;2265208;61;965;-88
2021/03/01 05:27:13;335788.00;1.12;579.43;110177.00;0.37;191.14;;;;;9.40;1.00;;;;;;2265547;61;1910;-88
2021/03/01 05:29:40;174020.00;0.58;301.19;53958.00;0.18;94.03;;;;;9.80;1.00;;;;;;2265551;61;1463;-87
2021/03/01 05:32:06;458784.00;1.53;790.89;109421.00;0.36;189.83;;;;;10.10;1.00;;;;;;2272148;61;1021;-87
2021/03/01 05:34:33;116723472.00;389.08;64416408.00;116602792.00;388.68;64216628.00;;;;;9.90;1.00;;;;;;2264025;61;1022;-87
2021/03/01 05:37:00;170237.00;0.57;294.67;85758.00;0.29;148.98;;;;;10.30;1.00;;;;;;2260740;61;981;-88
2021/03/01 05:39:27;347781.00;1.16;600.05;87317.00;0.29;151.67;;;;;10.60;1.00;;;;;;2264061;61;1349;-87
2021/03/01 05:41:54;306537.00;1.02;529.16;83581.00;0.28;145.22;;;;;10.80;1.00;;;;;;2264912;61;1707;-88
2021/03/01 05:44:21;175907.00;0.59;304.44;96203.00;0.32;167.02;;;;;11.00;1.00;;;;;;2260015;61;989;-89
2021/03/01 05:46:49;192545.00;0.64;333.09;55898.00;0.19;97.39;;;;;11.10;1.00;;;;;;2260033;61;1998;-89
2021/03/01 05:49:16;373146.00;1.24;643.64;85858.00;0.29;149.16;;;;;10.40;1.00;;;;;;2259980;61;1325;-88
2021/03/01 05:51:45;255235.00;0.85;440.95;82370.00;0.27;143.13;;;;;9.60;1.00;;;;;;2261079;61;1014;-87
2021/03/01 05:54:16;169491.00;0.56;293.39;81533.00;0.27;141.69;;;;;9.80;1.00;;;;;;2264775;61;944;-87
2021/03/01 05:56:42;238494.00;0.79;412.16;76308.00;0.25;132.66;;;;;9.50;1.00;;;;;;2260039;61;1040;-88
2021/03/01 05:59:10;253218.00;0.84;437.49;88394.00;0.29;153.53;;;;;9.30;1.00;;;;;;2256722;61;967;-88
2021/03/01 06:21:22;219407.00;0.73;379.32;81548.00;0.27;141.71;;;;;8.20;1.00;;;;;;2509613;40;3447;31
2021/03/01 07:11:25;1361.00;0.00;2.98;0.00;0.00;0.62;;;;;9.60;1.00;;;;;;2516701;55;3539;31
2021/03/01 08:15:04;331808.00;1.11;572.59;87043.00;0.29;151.20;;;;;7.90;1.00;;;;;;2278750;61;1299;-91
2021/03/01 08:20:31;405458.00;1.35;699.19;130732.00;0.44;226.59;;;;;8.30;1.00;;;;;;2278824;61;1303;-92
2021/03/01 08:30:39;477659.00;1.59;823.37;80491.00;0.27;139.89;;;;;9.30;1.00;;;;;;2278829;61;919;-90
2021/03/01 08:56:22;39108.00;0.13;68.35;0.00;0.00;0.62;;;;;8.80;1.00;;;;;;2279622;61;959;-90
2021/03/01 09:01:23;36844.00;0.12;64.43;0.00;0.00;0.62;;;;;8.50;1.00;;;;;;2279272;61;1296;-90
2021/03/01 09:11:25;233406.00;0.78;403.41;0.00;0.00;0.62;;;;;7.30;1.00;;;;;;2283693;61;996;-90
2021/03/01 09:16:23;35495.00;0.12;62.09;0.00;0.00;0.62;;;;;7.60;1.00;;;;;;2279361;61;1298;-90
2021/03/01 09:21:24;56551.00;0.19;98.51;0.00;0.00;0.62;;;;;7.70;1.00;;;;;;2279550;61;1164;-91
2021/03/01 12:26:41;203926.00;0.68;352.68;0.00;0.00;0.62;;;;;14.90;1.00;;;;;;2278160;61;951;-90
2021/03/01 12:41:51;610680.00;2.04;1052.66;77735.00;0.26;135.12;;;;;15.40;1.00;;;;;;2421520;40;3338;31
2021/03/01 13:59:08;113764.00;0.38;197.32;0.00;0.00;0.62;;;;;15.90;1.00;;;;;;2278970;61;1043;-89
2021/03/01 14:26:48;227616.00;0.76;393.45;71877.00;0.24;125.00;;;;;16.20;1.00;;;;;;2509222;55;3612;31
2021/03/01 14:29:14;386455.00;1.29;666.52;93452.00;0.31;162.27;;;;;16.10;1.00;;;;;;2513222;55;3727;31
2021/03/01 14:34:08;225273.00;0.75;389.42;78302.00;0.26;136.10;;;;;16.10;1.00;;;;;;2507471;40;3481;31
2021/03/01 14:56:54;137770.00;0.46;238.73;0.00;0.00;0.62;;;;;16.60;1.00;;;;;;2275012;61;972;-88
2021/03/01 16:14:35;597384.00;1.99;1029.70;74539.00;0.25;129.60;;;;;16.00;1.00;;;;;;2277994;61;1215;-90
2021/03/01 16:17:01;651744.00;2.17;1123.65;95853.00;0.32;166.41;;;;;16.00;1.00;;;;;;2276137;61;1352;-88
2021/03/01 16:19:28;614636.00;2.05;1059.50;89403.00;0.30;155.28;;;;;15.90;1.00;;;;;;2276337;61;1018;-88
2021/03/01 16:21:54;424923.00;1.42;732.66;74062.00;0.25;128.78;;;;;15.90;1.00;;;;;;2276233;61;1149;-90
2021/03/01 16:24:21;470320.00;1.57;810.74;76449.00;0.25;132.90;;;;;16.00;1.00;;;;;;2276272;61;1698;-90
2021/03/01 16:26:47;304387.00;1.01;525.46;79408.00;0.26;138.01;;;;;15.80;1.00;;;;;;2275664;61;1278;-89
2021/03/01 16:29:14;288441.00;0.96;498.05;73469.00;0.24;127.75;;;;;15.70;1.00;;;;;;2275472;61;2013;-90
2021/03/01 16:31:41;560903.00;1.87;966.76;173018.00;0.58;299.46;;;;;15.50;1.00;;;;;;2263665;61;978;-90
2021/03/01 16:34:08;464163.00;1.55;800.15;29261.00;0.10;51.30;;;;;15.70;1.00;;;;;;2263217;61;1015;-89
2021/03/01 16:36:35;519437.00;1.73;895.30;76495.00;0.25;132.98;;;;;15.80;1.00;;;;;;2263515;61;1601;-90
2021/03/01 16:39:05;920571.00;3.07;1592.28;87481.00;0.29;151.96;;;;;15.70;1.00;;;;;;2263598;61;1587;-89
